Collinsville, AL

4:17 AM CDT on August 21, 2014 (GMT -0500)
Rock Creek Bloodhounds | Change Station
CLOSE
Current Station
Personal Weather Station
Location: Fort Payne, AL
Elevation: 1162 ft
Nearby Weather Stations

Elev 1162 ft 34.41 °N, 85.88 °W | Updated 7 minutes ago

Overcast
Overcast
67.3 °F
Feels Like 67.3 °F
N
0.0
Wind Variable Wind from ENE
Gusts 0.0 mph

Today
High -- | Low -- °F
--% Chance of Precip.
Yesterday
High -- | Low -- °F
Precip. -- in
6:08 AM 7:23 PM
Waning Crescent, 15% visible
Pressure 30.11 in
Visibility 0.8 miles
Clouds Overcast 100 ft
Dew Point 64 °F
Humidity 90%
Rainfall 0.00 in
Snow Depth Not available.
UV 0 out of 12
Pollen 8.70 out of 12
Air Quality Not available.
Flu Activity Not available.
METAR K4A9 210855Z AUTO 00000KT 3/4SM BR OVC001 19/17 A3011 RMK AO2

More Conditions Fewer Conditions

Pressure 30.11 in
Visibility 0.8 miles
Clouds Overcast 100 ft
Dew Point 64 °F
Humidity 90%
Rainfall 0.00 in
Snow Depth Not available.
UV 0 out of 12
Pollen 8.70 out of 12
Air Quality Not available.
Flu Activity Not available.
METAR K4A9 210855Z AUTO 00000KT 3/4SM BR OVC001 19/17 A3011 RMK AO2

More Conditions Fewer Conditions

10-Day Weather Forecast

Almanac

Astronomy

Aug. 21, 2014 Rise Set
Actual Time 6:08 AM CDT 7:23 PM CDT
Civil Twilight 5:42 AM CDT 7:49 PM CDT
Nautical Twilight 5:11 AM CDT 8:20 PM CDT
Astronomical Twilight 4:38 AM CDT 8:53 PM CDT
Moon 2:42 AM CDT 4:48 PM CDT
Length of Visible Light 14h 07m
Length of Day
13h 14m
Tomorrow will be 1m 57s shorter.
Waning Crescent, 15% of the Moon is Illuminated
Today
Waning Crescent
Aug 25
New
Sep 2
First Quarter
Sep 8
Full
Sep 15
Last Quarter

Today's Extremes

State Highs State Lows

Community

WunderPhotos

Upload Photos

1,745,864 photos uploaded!

Nearby

Snow Depth

Station Depth Elevation
No new snow has been reported.

Earthquake Activity

City Distance Mag. Time & Date
No recent earthquake activity has been reported nearby.
Minimum magnitude displayed is 2.5.

Coastal Water Temperatures

Place Temperature
No Stations Reporting

Nearby Weather Stations